Back to Top

Language: 

My Weather Underground Personal Weather Station Historical Data with Graphs...

Delerius Weather Station Historical Data
Daily Summary for November 10, 2017 Units:  English    Metric   Both
« Previous Day
Next Day »
Daily Weekly Monthly Yearly Custom
  High: Low: Average:
Temperature: 50.7 °F 43.3 °F 46.7 °F
Dew Point: 47.7 °F 38.0 °F 41.6 °F
Humidity: 92 % 70 % 83 %
Wind Speed: 19.0 mph 1.0 mph 9.8 mph
Wind Gust: 31.0 mph - -
Wind:- - West
Pressure: 30.07 in 29.92 in -
Precipitation: 0.03 in    
Historical Graphs
 
 
Tabular Data for November 10, 2017
Time Temperature Dew Point Pressure Wind Wind Speed Wind Gust Humidity Rainfall Rate (Hourly) solar Conditions
00:03 47.8 °F 42.3 °F 30.04 in West 10.0 mph 15.0 mph 81 % 0.00 in 0 W/m2
00:08 47.8 °F 42.3 °F 30.03 in WSW 11.0 mph 16.0 mph 81 % 0.00 in 0 W/m2
00:13 48.0 °F 42.5 °F 30.03 in West 10.0 mph 18.0 mph 81 % 0.00 in 0 W/m2
00:18 48.0 °F 42.5 °F 30.03 in WSW 11.0 mph 16.0 mph 81 % 0.00 in 0 W/m2
00:23 48.2 °F 42.6 °F 30.03 in West 9.0 mph 14.0 mph 81 % 0.00 in 0 W/m2
00:28 48.2 °F 42.6 °F 30.03 in WSW 10.0 mph 16.0 mph 81 % 0.00 in 0 W/m2
00:33 48.2 °F 42.3 °F 30.02 in WSW 12.0 mph 16.0 mph 80 % 0.00 in 0 W/m2
00:38 48.2 °F 42.0 °F 30.02 in West 11.0 mph 15.0 mph 79 % 0.00 in 0 W/m2
00:43 48.0 °F 41.8 °F 30.02 in West 8.0 mph 12.0 mph 79 % 0.00 in 0 W/m2
00:48 48.0 °F 41.8 °F 30.02 in West 10.0 mph 15.0 mph 79 % 0.00 in 0 W/m2
00:53 47.8 °F 41.6 °F 30.02 in West 10.0 mph 19.0 mph 79 % 0.00 in 0 W/m2
00:58 47.8 °F 41.6 °F 30.01 in West 8.0 mph 16.0 mph 79 % 0.00 in 0 W/m2
01:03 47.8 °F 41.6 °F 30.01 in West 9.0 mph 13.0 mph 79 % 0.00 in 0 W/m2
01:08 47.8 °F 41.6 °F 30.00 in WSW 9.0 mph 13.0 mph 79 % 0.00 in 0 W/m2
01:13 47.8 °F 41.6 °F 30.00 in WSW 8.0 mph 14.0 mph 79 % 0.00 in 0 W/m2
01:18 47.8 °F 41.6 °F 30.00 in WSW 6.0 mph 11.0 mph 79 % 0.00 in 0 W/m2
01:23 47.8 °F 41.6 °F 30.00 in WSW 6.0 mph 13.0 mph 79 % 0.00 in 0 W/m2
01:28 48.0 °F 41.8 °F 30.00 in WSW 5.0 mph 9.0 mph 79 % 0.00 in 0 W/m2
01:33 48.0 °F 41.8 °F 30.00 in WSW 6.0 mph 9.0 mph 79 % 0.00 in 0 W/m2
01:38 48.2 °F 41.7 °F 29.99 in WSW 8.0 mph 11.0 mph 78 % 0.00 in 0 W/m2
01:43 48.2 °F 41.7 °F 29.99 in SW 6.0 mph 9.0 mph 78 % 0.00 in 0 W/m2
01:48 48.2 °F 41.7 °F 29.99 in WSW 5.0 mph 10.0 mph 78 % 0.00 in 0 W/m2
01:53 48.2 °F 41.7 °F 29.99 in WSW 6.0 mph 10.0 mph 78 % 0.00 in 0 W/m2
01:58 48.2 °F 42.0 °F 29.98 in WSW 8.0 mph 12.0 mph 79 % 0.00 in 0 W/m2
02:03 48.4 °F 41.8 °F 29.98 in SW 6.0 mph 10.0 mph 78 % 0.00 in 0 W/m2
02:08 48.4 °F 41.8 °F 29.98 in WSW 8.0 mph 12.0 mph 78 % 0.00 in 0 W/m2
02:13 48.6 °F 42.3 °F 29.98 in SW 10.0 mph 15.0 mph 79 % 0.00 in 0 W/m2
02:18 48.6 °F 42.7 °F 29.97 in SW 7.0 mph 10.0 mph 80 % 0.00 in 0 W/m2
02:23 48.4 °F 42.8 °F 29.97 in SW 6.0 mph 8.0 mph 81 % 0.00 in 0 W/m2
02:28 48.4 °F 42.8 °F 29.97 in SW 5.0 mph 9.0 mph 81 % 0.00 in 0 W/m2
02:33 48.0 °F 43.1 °F 29.96 in SSW 7.0 mph 11.0 mph 83 % 0.00 in 0 W/m2
02:38 47.8 °F 43.5 °F 29.96 in SSW 5.0 mph 9.0 mph 85 % 0.00 in 0 W/m2
02:43 47.5 °F 43.5 °F 29.96 in SW 7.0 mph 9.0 mph 86 % 0.00 in 0 W/m2
02:48 47.3 °F 43.6 °F 29.95 in SW 3.0 mph 6.0 mph 87 % 0.00 in 0 W/m2
02:53 47.1 °F 43.7 °F 29.95 in SW 4.0 mph 8.0 mph 88 % 0.00 in 0 W/m2
02:59 46.9 °F 43.6 °F 29.94 in SSW 3.0 mph 5.0 mph 88 % 0.00 in 0 W/m2
03:04 46.9 °F 43.9 °F 29.94 in SW 4.0 mph 8.0 mph 89 % 0.00 in 0 W/m2
03:09 46.8 °F 44.0 °F 29.94 in SSW 3.0 mph 7.0 mph 90 % 0.00 in 0 W/m2
03:14 46.8 °F 44.0 °F 29.94 in SW 5.0 mph 8.0 mph 90 % 0.00 in 0 W/m2
03:19 46.8 °F 44.3 °F 29.93 in SSW 3.0 mph 6.0 mph 91 % 0.00 in 0 W/m2
03:24 46.8 °F 44.3 °F 29.93 in SSW 2.0 mph 7.0 mph 91 % 0.00 in 0 W/m2
03:29 46.8 °F 44.3 °F 29.93 in SW 4.0 mph 8.0 mph 91 % 0.00 in 0 W/m2
03:34 46.8 °F 44.3 °F 29.93 in SW 2.0 mph 6.0 mph 91 % 0.00 in 0 W/m2
03:39 46.9 °F 44.7 °F 29.93 in WSW 4.0 mph 8.0 mph 92 % 0.00 in 0 W/m2
03:44 47.3 °F 45.1 °F 29.92 in WSW 6.0 mph 13.0 mph 92 % 0.00 in 0 W/m2
03:49 47.8 °F 45.6 °F 29.92 in West 7.0 mph 10.0 mph 92 % 0.00 in 0 W/m2
03:54 48.4 °F 46.2 °F 29.92 in WSW 9.0 mph 18.0 mph 92 % 0.00 in 0 W/m2
03:59 48.6 °F 46.1 °F 29.92 in West 8.0 mph 15.0 mph 91 % 0.00 in 0 W/m2
04:04 48.7 °F 46.2 °F 29.92 in West 7.0 mph 9.0 mph 91 % 0.00 in 0 W/m2
04:09 48.7 °F 46.2 °F 29.92 in West 6.0 mph 8.0 mph 91 % 0.00 in 0 W/m2
04:14 48.9 °F 46.4 °F 29.92 in West 5.0 mph 8.0 mph 91 % 0.00 in 0 W/m2
04:19 49.1 °F 46.6 °F 29.92 in West 8.0 mph 14.0 mph 91 % 0.00 in 0 W/m2
04:24 49.6 °F 47.1 °F 29.92 in WNW 11.0 mph 18.0 mph 91 % 0.00 in 0 W/m2
04:29 49.8 °F 47.3 °F 29.92 in WNW 6.0 mph 10.0 mph 91 % 0.00 in 0 W/m2
04:34 50.0 °F 47.5 °F 29.92 in WNW 9.0 mph 13.0 mph 91 % 0.00 in 0 W/m2
04:39 50.2 °F 47.7 °F 29.92 in WNW 8.0 mph 16.0 mph 91 % 0.00 in 0 W/m2
04:44 50.4 °F 47.5 °F 29.92 in WNW 10.0 mph 16.0 mph 90 % 0.00 in 0 W/m2
04:49 50.4 °F 47.5 °F 29.92 in WNW 11.0 mph 20.0 mph 90 % 0.00 in 0 W/m2
04:54 50.4 °F 46.9 °F 29.92 in WNW 15.0 mph 27.0 mph 88 % 0.00 in 0 W/m2
04:56 50.5 °F 47.1 °F 29.92 in WNW 14.0 mph 23.0 mph 88 % 0.00 in 0 W/m2
05:01 50.7 °F 46.7 °F 29.92 in WNW 15.0 mph 27.0 mph 86 % 0.00 in 0 W/m2
05:06 50.7 °F 46.7 °F 29.93 in WNW 12.0 mph 18.0 mph 86 % 0.00 in 0 W/m2
05:11 50.5 °F 46.2 °F 29.93 in NW 12.0 mph 23.0 mph 85 % 0.00 in 0 W/m2
05:16 50.5 °F 45.9 °F 29.92 in WNW 11.0 mph 20.0 mph 84 % 0.00 in 0 W/m2
05:21 50.4 °F 45.7 °F 29.93 in WNW 14.0 mph 21.0 mph 84 % 0.00 in 0 W/m2
05:22 50.4 °F 45.7 °F 29.93 in WNW 14.0 mph 22.0 mph 84 % 0.00 in 0 W/m2
05:27 50.4 °F 45.7 °F 29.93 in NW 9.0 mph 18.0 mph 84 % 0.00 in 0 W/m2
05:32 50.2 °F 45.5 °F 29.93 in WNW 13.0 mph 22.0 mph 84 % 0.00 in 0 W/m2
05:37 50.0 °F 45.4 °F 29.93 in WNW 12.0 mph 24.0 mph 84 % 0.00 in 0 W/m2
05:42 49.8 °F 44.9 °F 29.93 in NW 10.0 mph 16.0 mph 83 % 0.00 in 0 W/m2
05:47 49.8 °F 44.9 °F 29.94 in WNW 12.0 mph 22.0 mph 83 % 0.00 in 0 W/m2
05:52 49.6 °F 44.4 °F 29.94 in WNW 13.0 mph 21.0 mph 82 % 0.00 in 0 W/m2
05:57 49.5 °F 43.9 °F 29.94 in WNW 13.0 mph 21.0 mph 81 % 0.00 in 0 W/m2
06:02 49.3 °F 43.7 °F 29.95 in WNW 10.0 mph 16.0 mph 81 % 0.00 in 0 W/m2
06:07 49.3 °F 43.4 °F 29.95 in WNW 12.0 mph 23.0 mph 80 % 0.00 in 0 W/m2
06:12 49.3 °F 43.4 °F 29.95 in NW 13.0 mph 23.0 mph 80 % 0.00 in 0 W/m2
06:17 49.3 °F 43.4 °F 29.95 in WNW 13.0 mph 22.0 mph 80 % 0.00 in 0 W/m2
06:22 49.1 °F 43.5 °F 29.95 in NW 12.0 mph 20.0 mph 81 % 0.00 in 0 W/m2
06:28 49.3 °F 43.7 °F 29.96 in WNW 13.0 mph 24.0 mph 81 % 0.00 in 0 W/m2
06:33 48.9 °F 43.3 °F 29.96 in WNW 13.0 mph 24.0 mph 81 % 0.00 in 0 W/m2
06:38 48.6 °F 43.3 °F 29.96 in WNW 14.0 mph 23.0 mph 82 % 0.00 in 0 W/m2
06:43 48.2 °F 43.0 °F 29.95 in WNW 17.0 mph 25.0 mph 82 % 0.00 in 0 W/m2
06:48 48.0 °F 42.8 °F 29.96 in WNW 14.0 mph 21.0 mph 82 % 0.00 in 0 W/m2
06:53 47.8 °F 42.3 °F 29.95 in WNW 16.0 mph 28.0 mph 81 % 0.00 in 0 W/m2
06:58 47.7 °F 42.1 °F 29.96 in WNW 18.0 mph 30.0 mph 81 % 0.00 in 0 W/m2
07:03 47.7 °F 42.1 °F 29.96 in WNW 19.0 mph 30.0 mph 81 % 0.00 in 0 W/m2
07:08 47.5 °F 41.9 °F 29.96 in WNW 19.0 mph 28.0 mph 81 % 0.00 in 7 W/m2
07:13 47.5 °F 41.9 °F 29.96 in WNW 16.0 mph 27.0 mph 81 % 0.00 in 11 W/m2
07:18 47.1 °F 41.3 °F 29.96 in WNW 17.0 mph 27.0 mph 80 % 0.00 in 11 W/m2
07:23 47.1 °F 41.3 °F 29.96 in WNW 16.0 mph 29.0 mph 80 % 0.00 in 9 W/m2
07:28 47.1 °F 40.9 °F 29.97 in WNW 15.0 mph 27.0 mph 79 % 0.00 in 9 W/m2
07:33 46.9 °F 40.4 °F 29.97 in NW 17.0 mph 31.0 mph 78 % 0.00 in 12 W/m2
07:38 46.9 °F 40.4 °F 29.97 in WNW 14.0 mph 24.0 mph 78 % 0.00 in 16 W/m2
07:43 46.9 °F 40.4 °F 29.97 in WNW 16.0 mph 29.0 mph 78 % 0.00 in 21 W/m2
07:48 46.9 °F 40.4 °F 29.98 in WNW 14.0 mph 24.0 mph 78 % 0.00 in 18 W/m2
07:53 46.8 °F 40.3 °F 29.98 in NW 10.0 mph 21.0 mph 78 % 0.00 in 21 W/m2
07:58 46.8 °F 40.3 °F 29.99 in NW 13.0 mph 24.0 mph 78 % 0.00 in 26 W/m2
08:03 46.8 °F 39.9 °F 29.99 in WNW 13.0 mph 22.0 mph 77 % 0.00 in 28 W/m2
08:08 46.8 °F 39.9 °F 29.99 in NW 11.0 mph 20.0 mph 77 % 0.00 in 33 W/m2
08:13 46.8 °F 39.9 °F 30.00 in NW 12.0 mph 21.0 mph 77 % 0.00 in 39 W/m2
08:18 46.8 °F 39.9 °F 30.00 in WNW 12.0 mph 20.0 mph 77 % 0.00 in 42 W/m2
08:23 46.8 °F 39.6 °F 30.00 in NW 16.0 mph 24.0 mph 76 % 0.00 in 49 W/m2
08:28 46.8 °F 39.6 °F 30.00 in WNW 13.0 mph 21.0 mph 76 % 0.00 in 54 W/m2
08:33 46.8 °F 39.9 °F 30.00 in WNW 12.0 mph 24.0 mph 77 % 0.00 in 60 W/m2
08:38 46.8 °F 39.9 °F 30.00 in WNW 13.0 mph 22.0 mph 77 % 0.00 in 58 W/m2
08:43 46.8 °F 39.6 °F 30.00 in WNW 15.0 mph 27.0 mph 76 % 0.00 in 67 W/m2
08:48 46.8 °F 39.3 °F 30.00 in WNW 15.0 mph 26.0 mph 75 % 0.00 in 70 W/m2
08:53 46.8 °F 39.3 °F 30.00 in WNW 13.0 mph 21.0 mph 75 % 0.00 in 72 W/m2
08:58 46.8 °F 38.9 °F 30.00 in WNW 12.0 mph 20.0 mph 74 % 0.00 in 79 W/m2
09:03 46.8 °F 38.2 °F 30.01 in WNW 13.0 mph 22.0 mph 72 % 0.00 in 86 W/m2
09:08 46.8 °F 38.2 °F 30.01 in NW 16.0 mph 26.0 mph 72 % 0.00 in 91 W/m2
09:13 46.9 °F 38.0 °F 30.01 in WNW 16.0 mph 28.0 mph 71 % 0.00 in 104 W/m2
09:18 46.9 °F 38.0 °F 30.02 in WNW 14.0 mph 22.0 mph 71 % 0.00 in 163 W/m2
09:23 47.1 °F 38.2 °F 30.02 in WNW 11.0 mph 21.0 mph 71 % 0.00 in 137 W/m2
09:29 47.1 °F 38.2 °F 30.02 in WNW 13.0 mph 28.0 mph 71 % 0.00 in 167 W/m2
09:34 47.5 °F 38.5 °F 30.03 in WNW 10.0 mph 22.0 mph 71 % 0.00 in 163 W/m2
09:39 47.5 °F 38.5 °F 30.03 in NW 10.0 mph 21.0 mph 71 % 0.00 in 258 W/m2
09:44 47.7 °F 38.4 °F 30.03 in WNW 10.0 mph 18.0 mph 70 % 0.00 in 241 W/m2
09:49 47.8 °F 38.9 °F 30.04 in NW 11.0 mph 19.0 mph 71 % 0.00 in 227 W/m2
09:54 48.0 °F 38.7 °F 30.04 in WNW 15.0 mph 24.0 mph 70 % 0.00 in 100 W/m2
09:59 47.8 °F 38.9 °F 30.04 in NW 8.0 mph 15.0 mph 71 % 0.00 in 116 W/m2
10:04 47.8 °F 39.2 °F 30.05 in WNW 12.0 mph 20.0 mph 72 % 0.00 in 287 W/m2
10:09 47.8 °F 39.2 °F 30.05 in WNW 17.0 mph 26.0 mph 72 % 0.00 in 176 W/m2
10:14 47.8 °F 39.2 °F 30.05 in WNW 14.0 mph 21.0 mph 72 % 0.00 in 153 W/m2
10:19 47.7 °F 39.4 °F 30.05 in WNW 11.0 mph 16.0 mph 73 % 0.00 in 176 W/m2
10:20 47.7 °F 39.4 °F 30.05 in WNW 11.0 mph 18.0 mph 73 % 0.00 in 176 W/m2
10:25 47.7 °F 39.8 °F 30.05 in WNW 12.0 mph 19.0 mph 74 % 0.00 in 320 W/m2
10:30 47.8 °F 40.0 °F 30.05 in WNW 10.0 mph 15.0 mph 74 % 0.00 in 327 W/m2
10:35 48.2 °F 40.3 °F 30.05 in WNW 12.0 mph 18.0 mph 74 % 0.00 in 323 W/m2
10:40 48.6 °F 40.6 °F 30.05 in WNW 7.0 mph 14.0 mph 74 % 0.00 in 323 W/m2
10:45 48.9 °F 40.6 °F 30.05 in WNW 11.0 mph 20.0 mph 73 % 0.00 in 297 W/m2
10:50 48.9 °F 40.6 °F 30.05 in WNW 11.0 mph 19.0 mph 73 % 0.00 in 346 W/m2
10:55 49.3 °F 41.0 °F 30.05 in WNW 12.0 mph 21.0 mph 73 % 0.00 in 353 W/m2
11:00 49.3 °F 41.0 °F 30.05 in WNW 14.0 mph 22.0 mph 73 % 0.00 in 345 W/m2
11:05 49.5 °F 41.2 °F 30.05 in WNW 12.0 mph 22.0 mph 73 % 0.00 in 197 W/m2
11:10 49.3 °F 40.6 °F 30.05 in WNW 15.0 mph 25.0 mph 72 % 0.00 in 381 W/m2
11:15 49.3 °F 40.6 °F 30.05 in WNW 12.0 mph 22.0 mph 72 % 0.00 in 387 W/m2
11:20 49.6 °F 41.0 °F 30.04 in WNW 12.0 mph 20.0 mph 72 % 0.00 in 364 W/m2
11:25 49.8 °F 40.8 °F 30.04 in WNW 16.0 mph 23.0 mph 71 % 0.00 in 380 W/m2
11:30 49.5 °F 40.1 °F 30.04 in WNW 19.0 mph 29.0 mph 70 % 0.00 in 260 W/m2
11:35 48.9 °F 39.6 °F 30.04 in West 17.0 mph 26.0 mph 70 % 0.00 in 230 W/m2
11:40 48.7 °F 39.8 °F 30.05 in WNW 14.0 mph 21.0 mph 71 % 0.00 in 264 W/m2
11:45 48.9 °F 39.9 °F 30.05 in WNW 16.0 mph 24.0 mph 71 % 0.00 in 397 W/m2
11:50 48.9 °F 39.6 °F 30.05 in WNW 17.0 mph 26.0 mph 70 % 0.00 in 95 W/m2
11:55 48.6 °F 39.2 °F 30.05 in WNW 15.0 mph 23.0 mph 70 % 0.00 in 346 W/m2
11:56 48.6 °F 39.6 °F 30.05 in WNW 15.0 mph 23.0 mph 71 % 0.00 in 364 W/m2
12:01 48.7 °F 39.8 °F 30.05 in WNW 17.0 mph 27.0 mph 71 % 0.00 in 369 W/m2
12:06 48.7 °F 40.1 °F 30.05 in WNW 14.0 mph 24.0 mph 72 % 0.00 in 355 W/m2
12:11 49.1 °F 40.1 °F 30.05 in WNW 12.0 mph 19.0 mph 71 % 0.00 in 374 W/m2
12:16 49.1 °F 40.1 °F 30.04 in WNW 16.0 mph 23.0 mph 71 % 0.00 in 125 W/m2
12:21 48.7 °F 40.1 °F 30.05 in WNW 16.0 mph 23.0 mph 72 % 0.00 in 299 W/m2
12:26 48.6 °F 41.0 °F 30.06 in WNW 18.0 mph 30.0 mph 75 % 0.00 in 158 W/m2
12:31 47.8 °F 41.0 °F 30.05 in WNW 15.0 mph 24.0 mph 77 % 0.00 in 253 W/m2
12:36 47.5 °F 39.9 °F 30.05 in WNW 14.0 mph 22.0 mph 75 % 0.00 in 155 W/m2
12:41 47.1 °F 39.9 °F 30.05 in WNW 13.0 mph 22.0 mph 76 % 0.00 in 158 W/m2
12:46 46.9 °F 39.8 °F 30.05 in WNW 11.0 mph 19.0 mph 76 % 0.00 in 158 W/m2
12:52 46.8 °F 39.6 °F 30.05 in WNW 10.0 mph 21.0 mph 76 % 0.00 in 139 W/m2
12:57 46.8 °F 39.3 °F 30.05 in WNW 12.0 mph 20.0 mph 75 % 0.00 in 134 W/m2
13:02 46.9 °F 39.4 °F 30.05 in WNW 12.0 mph 20.0 mph 75 % 0.00 in 313 W/m2
13:07 47.3 °F 39.8 °F 30.05 in WNW 10.0 mph 19.0 mph 75 % 0.00 in 299 W/m2
13:12 47.8 °F 40.0 °F 30.05 in WNW 11.0 mph 18.0 mph 74 % 0.00 in 327 W/m2
13:17 48.4 °F 40.1 °F 30.05 in WNW 13.0 mph 19.0 mph 73 % 0.00 in 149 W/m2
13:22 48.6 °F 40.3 °F 30.05 in WNW 12.0 mph 20.0 mph 73 % 0.00 in 381 W/m2
13:27 48.7 °F 40.5 °F 30.05 in WNW 12.0 mph 19.0 mph 73 % 0.00 in 186 W/m2
13:30 48.7 °F 40.5 °F 30.05 in WNW 12.0 mph 18.0 mph 73 % 0.00 in 216 W/m2
13:35 48.7 °F 41.8 °F 30.05 in NW 9.0 mph 15.0 mph 77 % 0.00 in 90 W/m2
13:40 48.2 °F 42.3 °F 30.05 in NNW 8.0 mph 12.0 mph 80 % 0.01 in 123 W/m2
13:45 47.7 °F 42.1 °F 30.06 in NNW 9.0 mph 19.0 mph 81 % 0.01 in 33 W/m2
13:50 46.8 °F 41.9 °F 30.06 in NW 10.0 mph 18.0 mph 83 % 0.02 in 33 W/m2
13:55 45.9 °F 41.3 °F 30.07 in NW 10.0 mph 18.0 mph 84 % 0.02 in 33 W/m2
14:00 45.0 °F 41.0 °F 30.06 in WNW 9.0 mph 18.0 mph 86 % 0.02 in 51 W/m2
14:05 44.8 °F 41.1 °F 30.06 in WNW 10.0 mph 15.0 mph 87 % 0.02 in 98 W/m2
14:10 44.6 °F 41.3 °F 30.06 in WNW 12.0 mph 21.0 mph 88 % 0.02 in 84 W/m2
14:15 44.4 °F 41.1 °F 30.06 in WNW 13.0 mph 25.0 mph 88 % 0.02 in 76 W/m2
14:20 44.4 °F 41.4 °F 30.05 in WNW 10.0 mph 15.0 mph 89 % 0.02 in 74 W/m2
14:25 44.6 °F 41.6 °F 30.05 in WNW 11.0 mph 18.0 mph 89 % 0.02 in 65 W/m2
14:30 44.6 °F 41.6 °F 30.06 in West 11.0 mph 21.0 mph 89 % 0.02 in 60 W/m2
14:35 44.6 °F 41.6 °F 30.06 in West 11.0 mph 19.0 mph 89 % 0.02 in 58 W/m2
14:40 44.6 °F 41.6 °F 30.06 in West 10.0 mph 15.0 mph 89 % 0.02 in 58 W/m2
14:45 44.6 °F 41.3 °F 30.06 in WNW 12.0 mph 20.0 mph 88 % 0.02 in 65 W/m2
14:50 44.6 °F 41.3 °F 30.06 in WNW 9.0 mph 16.0 mph 88 % 0.01 in 72 W/m2
14:55 44.8 °F 41.1 °F 30.06 in WNW 11.0 mph 15.0 mph 87 % 0.00 in 54 W/m2
15:00 44.8 °F 40.8 °F 30.06 in WNW 13.0 mph 18.0 mph 86 % 0.00 in 56 W/m2
15:05 44.8 °F 40.5 °F 30.06 in WNW 13.0 mph 21.0 mph 85 % 0.00 in 60 W/m2
15:10 44.8 °F 40.5 °F 30.06 in WNW 11.0 mph 19.0 mph 85 % 0.00 in 63 W/m2
15:16 44.8 °F 40.5 °F 30.06 in West 10.0 mph 14.0 mph 85 % 0.00 in 53 W/m2
15:21 44.6 °F 40.4 °F 30.06 in West 9.0 mph 16.0 mph 85 % 0.00 in 47 W/m2
15:26 44.4 °F 40.2 °F 30.06 in West 7.0 mph 14.0 mph 85 % 0.00 in 39 W/m2
15:31 44.4 °F 40.5 °F 30.06 in West 6.0 mph 10.0 mph 86 % 0.00 in 32 W/m2
15:36 44.4 °F 40.5 °F 30.06 in WNW 6.0 mph 12.0 mph 86 % 0.00 in 28 W/m2
15:41 44.2 °F 40.3 °F 30.06 in West 9.0 mph 14.0 mph 86 % 0.00 in 25 W/m2
15:46 44.2 °F 40.3 °F 30.06 in WNW 6.0 mph 11.0 mph 86 % 0.00 in 19 W/m2
15:51 44.2 °F 40.6 °F 30.05 in WNW 6.0 mph 12.0 mph 87 % 0.00 in 19 W/m2
15:56 44.4 °F 40.8 °F 30.05 in WNW 8.0 mph 11.0 mph 87 % 0.00 in 14 W/m2
16:01 44.4 °F 40.8 °F 30.05 in WNW 8.0 mph 13.0 mph 87 % 0.00 in 11 W/m2
16:06 44.4 °F 40.8 °F 30.05 in WNW 9.0 mph 14.0 mph 87 % 0.00 in 7 W/m2
16:11 44.6 °F 41.0 °F 30.05 in WNW 9.0 mph 13.0 mph 87 % 0.00 in 0 W/m2
16:16 44.8 °F 41.1 °F 30.05 in WNW 10.0 mph 15.0 mph 87 % 0.00 in 0 W/m2
16:21 45.0 °F 41.0 °F 30.06 in WNW 12.0 mph 16.0 mph 86 % 0.00 in 0 W/m2
16:26 45.0 °F 41.0 °F 30.06 in NW 8.0 mph 12.0 mph 86 % 0.00 in 0 W/m2
16:31 44.8 °F 40.8 °F 30.06 in NW 8.0 mph 16.0 mph 86 % 0.00 in 0 W/m2
16:36 44.6 °F 41.0 °F 30.07 in NNW 9.0 mph 14.0 mph 87 % 0.01 in 0 W/m2
16:41 44.4 °F 41.1 °F 30.07 in NW 9.0 mph 18.0 mph 88 % 0.01 in 0 W/m2
16:46 44.1 °F 40.7 °F 30.06 in WNW 14.0 mph 26.0 mph 88 % 0.01 in 0 W/m2
16:51 43.7 °F 40.4 °F 30.06 in WNW 12.0 mph 16.0 mph 88 % 0.01 in 0 W/m2
16:56 43.5 °F 40.5 °F 30.06 in WNW 11.0 mph 16.0 mph 89 % 0.01 in 0 W/m2
17:01 43.5 °F 40.5 °F 30.05 in WNW 7.0 mph 13.0 mph 89 % 0.01 in 0 W/m2
17:06 43.3 °F 40.3 °F 30.05 in WNW 12.0 mph 24.0 mph 89 % 0.01 in 0 W/m2
17:11 43.3 °F 40.3 °F 30.05 in WNW 13.0 mph 20.0 mph 89 % 0.01 in 0 W/m2
17:16 43.3 °F 40.0 °F 30.05 in WNW 11.0 mph 18.0 mph 88 % 0.01 in 0 W/m2
17:21 43.5 °F 40.2 °F 30.05 in West 12.0 mph 22.0 mph 88 % 0.01 in 0 W/m2
17:26 43.7 °F 40.1 °F 30.05 in West 9.0 mph 11.0 mph 87 % 0.01 in 0 W/m2
17:31 43.7 °F 40.1 °F 30.05 in West 8.0 mph 13.0 mph 87 % 0.01 in 0 W/m2
17:36 43.7 °F 40.4 °F 30.04 in West 6.0 mph 10.0 mph 88 % 0.00 in 0 W/m2
17:37 43.7 °F 40.4 °F 30.04 in West 6.0 mph 9.0 mph 88 % 0.00 in 0 W/m2
17:42 43.7 °F 40.4 °F 30.04 in West 7.0 mph 10.0 mph 88 % 0.00 in 0 W/m2
17:47 43.7 °F 40.4 °F 30.04 in West 5.0 mph 8.0 mph 88 % 0.00 in 0 W/m2
17:52 43.7 °F 40.4 °F 30.04 in West 5.0 mph 9.0 mph 88 % 0.00 in 0 W/m2
17:57 43.9 °F 40.6 °F 30.04 in West 8.0 mph 13.0 mph 88 % 0.00 in 0 W/m2
18:02 43.9 °F 40.6 °F 30.03 in West 5.0 mph 9.0 mph 88 % 0.00 in 0 W/m2
18:07 43.9 °F 40.6 °F 30.04 in West 7.0 mph 13.0 mph 88 % 0.00 in 0 W/m2
18:12 44.1 °F 40.7 °F 30.04 in West 7.0 mph 11.0 mph 88 % 0.00 in 0 W/m2
18:17 44.2 °F 40.6 °F 30.04 in West 5.0 mph 8.0 mph 87 % 0.00 in 0 W/m2
18:22 44.4 °F 40.8 °F 30.03 in West 6.0 mph 10.0 mph 87 % 0.00 in 0 W/m2
18:27 44.4 °F 40.5 °F 30.03 in West 5.0 mph 10.0 mph 86 % 0.00 in 0 W/m2
18:32 44.6 °F 40.7 °F 30.04 in West 4.0 mph 6.0 mph 86 % 0.00 in 0 W/m2
18:38 44.6 °F 40.7 °F 30.03 in WNW 4.0 mph 8.0 mph 86 % 0.00 in 0 W/m2
18:43 44.6 °F 40.7 °F 30.03 in WNW 4.0 mph 6.0 mph 86 % 0.00 in 0 W/m2
18:48 44.6 °F 40.7 °F 30.03 in West 3.0 mph 6.0 mph 86 % 0.00 in 0 W/m2
18:53 44.6 °F 40.7 °F 30.04 in West 1.0 mph 5.0 mph 86 % 0.00 in 0 W/m2
18:58 44.4 °F 40.5 °F 30.03 in West 4.0 mph 7.0 mph 86 % 0.00 in 0 W/m2
19:03 44.6 °F 40.7 °F 30.04 in WNW 4.0 mph 7.0 mph 86 % 0.00 in 0 W/m2
19:08 44.8 °F 41.1 °F 30.04 in WNW 6.0 mph 12.0 mph 87 % 0.00 in 0 W/m2
19:13 44.8 °F 41.1 °F 30.04 in WNW 6.0 mph 10.0 mph 87 % 0.00 in 0 W/m2
19:18 44.8 °F 41.1 °F 30.03 in NW 4.0 mph 9.0 mph 87 % 0.00 in 0 W/m2
19:23 44.8 °F 41.1 °F 30.03 in WNW 5.0 mph 11.0 mph 87 % 0.00 in 0 W/m2
19:28 44.8 °F 41.1 °F 30.03 in WNW 5.0 mph 7.0 mph 87 % 0.00 in 0 W/m2
19:33 44.8 °F 41.1 °F 30.03 in WNW 5.0 mph 7.0 mph 87 % 0.00 in 0 W/m2
19:38 44.6 °F 41.3 °F 30.03 in WNW 4.0 mph 6.0 mph 88 % 0.00 in 0 W/m2
19:43 44.6 °F 41.3 °F 30.03 in West 3.0 mph 5.0 mph 88 % 0.00 in 0 W/m2
19:48 44.4 °F 41.1 °F 30.02 in West 2.0 mph 4.0 mph 88 % 0.00 in 0 W/m2
19:53 44.4 °F 41.4 °F 30.02 in WSW 5.0 mph 8.0 mph 89 % 0.00 in 0 W/m2
19:58 44.4 °F 41.1 °F 30.01 in West 7.0 mph 13.0 mph 88 % 0.00 in 0 W/m2
20:03 44.4 °F 41.1 °F 30.01 in West 8.0 mph 13.0 mph 88 % 0.00 in 0 W/m2
20:08 44.6 °F 41.0 °F 30.01 in West 5.0 mph 8.0 mph 87 % 0.00 in 0 W/m2
20:13 44.6 °F 41.0 °F 30.01 in West 6.0 mph 9.0 mph 87 % 0.00 in 0 W/m2
20:18 44.6 °F 41.0 °F 30.01 in West 7.0 mph 9.0 mph 87 % 0.00 in 0 W/m2
20:23 44.8 °F 41.1 °F 30.00 in West 6.0 mph 11.0 mph 87 % 0.00 in 0 W/m2
20:28 44.8 °F 41.1 °F 30.00 in West 7.0 mph 11.0 mph 87 % 0.00 in 0 W/m2
20:34 45.0 °F 41.3 °F 30.00 in West 8.0 mph 11.0 mph 87 % 0.00 in 0 W/m2
20:38 45.0 °F 41.3 °F 30.00 in West 7.0 mph 11.0 mph 87 % 0.00 in 0 W/m2
20:43 45.0 °F 41.3 °F 30.00 in West 8.0 mph 11.0 mph 87 % 0.00 in 0 W/m2
20:48 45.1 °F 41.5 °F 30.00 in West 9.0 mph 13.0 mph 87 % 0.00 in 0 W/m2
20:54 45.1 °F 41.2 °F 30.00 in West 9.0 mph 13.0 mph 86 % 0.00 in 0 W/m2
20:59 45.1 °F 41.2 °F 30.00 in West 9.0 mph 13.0 mph 86 % 0.00 in 0 W/m2
21:04 45.1 °F 41.2 °F 29.99 in West 11.0 mph 16.0 mph 86 % 0.00 in 0 W/m2
21:09 45.3 °F 41.4 °F 29.99 in West 9.0 mph 16.0 mph 86 % 0.00 in 0 W/m2
21:14 45.3 °F 41.4 °F 29.99 in West 8.0 mph 14.0 mph 86 % 0.00 in 0 W/m2
21:19 45.1 °F 41.2 °F 29.99 in West 8.0 mph 13.0 mph 86 % 0.00 in 0 W/m2
21:24 45.1 °F 41.5 °F 29.99 in West 7.0 mph 12.0 mph 87 % 0.00 in 0 W/m2
21:29 45.1 °F 41.5 °F 29.99 in West 6.0 mph 11.0 mph 87 % 0.00 in 0 W/m2
21:34 45.0 °F 41.3 °F 29.98 in West 8.0 mph 13.0 mph 87 % 0.00 in 0 W/m2
21:39 45.0 °F 41.6 °F 29.98 in West 8.0 mph 12.0 mph 88 % 0.00 in 0 W/m2
21:44 45.0 °F 41.6 °F 29.98 in West 9.0 mph 13.0 mph 88 % 0.00 in 0 W/m2
21:49 45.1 °F 41.8 °F 29.98 in West 8.0 mph 13.0 mph 88 % 0.00 in 0 W/m2
21:54 45.1 °F 41.5 °F 29.98 in WNW 10.0 mph 18.0 mph 87 % 0.00 in 0 W/m2
21:59 45.1 °F 41.5 °F 29.98 in West 7.0 mph 11.0 mph 87 % 0.00 in 0 W/m2
22:04 45.1 °F 41.5 °F 29.97 in West 9.0 mph 13.0 mph 87 % 0.00 in 0 W/m2
22:09 45.1 °F 41.5 °F 29.97 in West 8.0 mph 15.0 mph 87 % 0.00 in 0 W/m2
22:14 45.3 °F 41.7 °F 29.97 in West 10.0 mph 14.0 mph 87 % 0.00 in 0 W/m2
22:19 45.3 °F 41.7 °F 29.97 in West 11.0 mph 16.0 mph 87 % 0.00 in 0 W/m2
22:24 45.3 °F 41.7 °F 29.97 in West 10.0 mph 19.0 mph 87 % 0.00 in 0 W/m2
22:29 45.3 °F 41.7 °F 29.97 in West 10.0 mph 15.0 mph 87 % 0.00 in 0 W/m2
22:34 45.3 °F 41.7 °F 29.97 in West 8.0 mph 12.0 mph 87 % 0.00 in 0 W/m2
22:39 45.3 °F 41.7 °F 29.97 in West 8.0 mph 12.0 mph 87 % 0.00 in 0 W/m2
22:44 45.3 °F 41.4 °F 29.96 in West 8.0 mph 11.0 mph 86 % 0.00 in 0 W/m2
22:49 45.3 °F 41.4 °F 29.96 in West 9.0 mph 14.0 mph 86 % 0.00 in 0 W/m2
22:54 45.5 °F 41.6 °F 29.96 in West 8.0 mph 13.0 mph 86 % 0.00 in 0 W/m2
22:59 45.5 °F 41.6 °F 29.96 in West 6.0 mph 10.0 mph 86 % 0.00 in 0 W/m2
23:04 45.5 °F 41.6 °F 29.95 in West 7.0 mph 9.0 mph 86 % 0.00 in 0 W/m2
23:09 45.3 °F 41.4 °F 29.95 in West 6.0 mph 9.0 mph 86 % 0.00 in 0 W/m2
23:14 45.3 °F 41.7 °F 29.95 in West 7.0 mph 11.0 mph 87 % 0.00 in 0 W/m2
23:19 45.3 °F 41.7 °F 29.95 in West 8.0 mph 13.0 mph 87 % 0.00 in 0 W/m2
23:24 45.3 °F 41.7 °F 29.95 in West 9.0 mph 12.0 mph 87 % 0.00 in 0 W/m2
23:29 45.3 °F 41.7 °F 29.94 in West 9.0 mph 14.0 mph 87 % 0.00 in 0 W/m2
23:34 45.3 °F 41.7 °F 29.94 in West 8.0 mph 13.0 mph 87 % 0.00 in 0 W/m2
23:36 45.3 °F 41.7 °F 29.94 in West 7.0 mph 9.0 mph 87 % 0.00 in 0 W/m2
23:41 45.3 °F 41.7 °F 29.94 in West 10.0 mph 14.0 mph 87 % 0.00 in 0 W/m2
23:46 45.3 °F 41.7 °F 29.94 in West 8.0 mph 13.0 mph 87 % 0.00 in 0 W/m2
23:51 45.3 °F 42.0 °F 29.93 in West 9.0 mph 13.0 mph 88 % 0.00 in 0 W/m2
23:56 45.3 °F 42.0 °F 29.93 in West 7.0 mph 10.0 mph 88 % 0.00 in 0 W/m2
Delerius-Weather
Compliments of Weather Underground - 2.25 mb

Data updates at regular intervals.